Preskocit navigáciu

OPMET


METAR LZMC 131600Z 27006KT CAVOK 25/08 Q1024=
METAR LZSL 131600Z 27008KT 250V310 CAVOK 22/07 Q1023=
METAR LZPW 131600Z 00000KT CAVOK 21/10 Q1022=

TAF LZMC 131630Z 1318/1406 24004KT CAVOK
TEMPO 1318/1324 18006KT=
TAF LZSL 131630Z 1318/1406 VRB03KT CAVOK
PROB40 TEMPO 1401/1406 1500 BCFG BKN001=
TAF LZPW 131630Z 1318/1406 VRB03KT CAVOK=


Oblastné QNH:
LZBB 15/18 1021 HPA 765.8 MM =

























Skočiť na menu


Share